createdAt,value
2022-12-04T00:02:08.805Z,3.27
2022-12-04T00:04:38.215Z,3.36
2022-12-04T00:07:07.632Z,3.41
2022-12-04T00:09:38.484Z,3.45
2022-12-04T00:12:08.361Z,3.46
2022-12-04T00:14:54.464Z,3.48
2022-12-04T00:17:27.072Z,3.50
2022-12-04T00:19:56.572Z,3.52
2022-12-04T00:22:26.052Z,3.53
2022-12-04T00:24:56.867Z,3.53
2022-12-04T00:27:26.246Z,3.54
2022-12-04T00:29:55.954Z,3.55
2022-12-04T00:32:25.522Z,3.50
2022-12-04T00:34:54.873Z,3.48
2022-12-04T00:37:24.100Z,3.48
2022-12-04T00:39:53.953Z,3.48
2022-12-04T00:42:24.924Z,3.44
2022-12-04T00:44:54.385Z,3.43
2022-12-04T00:47:23.672Z,3.42
2022-12-04T00:51:04.512Z,3.33
2022-12-04T00:53:34.289Z,3.30
2022-12-04T00:56:06.885Z,3.28
2022-12-04T00:58:36.648Z,3.26
2022-12-04T01:01:09.167Z,3.22
2022-12-04T01:03:39.144Z,3.20
2022-12-04T01:06:20.247Z,3.15
2022-12-04T01:08:50.275Z,3.11
2022-12-04T01:11:20.633Z,2.94
2022-12-04T01:13:50.047Z,2.89
2022-12-04T01:16:22.884Z,2.92
2022-12-04T01:18:52.269Z,2.93
2022-12-04T01:21:23.387Z,2.97
2022-12-04T01:23:52.881Z,2.95
2022-12-04T01:26:22.407Z,2.93
2022-12-04T01:28:51.794Z,3.00
2022-12-04T01:31:23.093Z,3.03
2022-12-04T01:33:53.525Z,2.97
2022-12-04T01:36:27.099Z,3.03
2022-12-04T01:38:56.970Z,3.08
2022-12-04T01:41:29.317Z,3.10
2022-12-04T01:44:15.571Z,3.14
2022-12-04T01:46:47.767Z,3.15
2022-12-04T01:49:22.468Z,3.19
2022-12-04T01:51:58.004Z,3.18
2022-12-04T01:54:31.208Z,3.12
2022-12-04T01:57:05.743Z,3.06
2022-12-04T01:59:41.527Z,3.00
2022-12-04T02:02:15.133Z,3.08
2022-12-04T02:04:46.248Z,3.16
2022-12-04T02:07:17.140Z,3.20
2022-12-04T02:09:54.165Z,3.24
2022-12-04T02:12:33.075Z,3.25
2022-12-04T02:15:16.679Z,3.22
2022-12-04T02:17:57.246Z,3.22
2022-12-04T02:20:36.524Z,3.10
2022-12-04T02:23:30.989Z,3.14
2022-12-04T02:26:14.774Z,3.20
2022-12-04T02:28:53.171Z,3.16
2022-12-04T02:31:28.195Z,3.10
2022-12-04T02:34:07.068Z,3.10
2022-12-04T02:36:46.445Z,3.06
2022-12-04T02:39:24.548Z,3.08
2022-12-04T02:41:59.407Z,3.07
2022-12-04T02:44:38.987Z,3.06
2022-12-04T02:47:15.305Z,3.07
2022-12-04T02:49:50.924Z,3.14
2022-12-04T02:52:28.607Z,3.19
2022-12-04T02:55:08.225Z,3.21
2022-12-04T02:57:45.824Z,3.29
2022-12-04T03:00:19.244Z,3.33
2022-12-04T03:02:55.915Z,3.34
2022-12-04T03:05:32.984Z,3.33
2022-12-04T03:08:09.909Z,3.29
2022-12-04T03:10:43.475Z,3.31
2022-12-04T03:13:19.621Z,3.35
2022-12-04T03:15:54.431Z,3.36
2022-12-04T03:18:29.481Z,3.39
2022-12-04T03:21:05.567Z,3.41
2022-12-04T03:23:39.227Z,3.41
2022-12-04T03:26:19.212Z,3.44
2022-12-04T03:28:57.050Z,3.45
2022-12-04T03:31:39.073Z,3.49
2022-12-04T03:34:10.846Z,3.51
2022-12-04T03:36:47.571Z,3.50
2022-12-04T03:39:24.424Z,3.50
2022-12-04T03:42:01.247Z,3.53
2022-12-04T03:44:39.971Z,3.49
2022-12-04T03:47:16.354Z,3.51
2022-12-04T03:52:05.698Z,3.51
2022-12-04T03:54:38.526Z,3.48
2022-12-04T03:57:12.991Z,3.50
2022-12-04T03:59:52.448Z,3.55
2022-12-04T04:02:31.433Z,3.58
2022-12-04T04:05:03.404Z,3.59
2022-12-04T04:07:42.308Z,3.61
2022-12-04T04:10:18.552Z,3.61
2022-12-04T04:13:09.644Z,3.62
2022-12-04T04:16:04.084Z,3.63
2022-12-04T04:18:52.846Z,3.63
2022-12-04T04:21:46.611Z,3.62
2022-12-04T04:24:36.859Z,3.58
2022-12-04T04:27:06.371Z,3.54
2022-12-04T04:29:35.984Z,3.53
2022-12-04T04:32:15.984Z,3.54
2022-12-04T04:34:55.043Z,3.59
2022-12-04T04:37:33.747Z,3.62
2022-12-04T04:40:16.124Z,3.62
2022-12-04T04:42:56.088Z,3.63
2022-12-04T04:45:32.352Z,3.65
2022-12-04T04:48:08.026Z,3.62
2022-12-04T04:50:38.501Z,3.62
2022-12-04T04:53:13.843Z,3.62
2022-12-04T04:55:46.066Z,3.64
2022-12-04T04:58:18.462Z,3.65
2022-12-04T05:01:01.984Z,3.67
2022-12-04T05:03:32.214Z,3.66
2022-12-04T05:06:01.668Z,3.67
2022-12-04T05:08:31.206Z,3.68
2022-12-04T05:11:02.183Z,3.67
2022-12-04T05:13:32.564Z,3.66
2022-12-04T05:16:03.761Z,3.56
2022-12-04T05:18:33.657Z,3.49
2022-12-04T05:21:07.124Z,3.57
2022-12-04T05:23:36.911Z,3.62
2022-12-04T05:26:08.077Z,3.63
2022-12-04T05:28:38.147Z,3.61
2022-12-04T05:31:07.709Z,3.63
2022-12-04T05:33:37.085Z,3.64
2022-12-04T05:36:09.584Z,3.61
2022-12-04T05:38:39.530Z,3.57
2022-12-04T05:41:10.886Z,3.59
2022-12-04T05:43:40.305Z,3.62
2022-12-04T05:46:11.949Z,3.65
2022-12-04T05:48:41.501Z,3.65
2022-12-04T05:51:12.068Z,3.66
2022-12-04T05:53:41.705Z,3.68
2022-12-04T05:56:13.165Z,3.71
2022-12-04T05:58:42.627Z,3.67
2022-12-04T06:01:14.409Z,3.63
2022-12-04T06:03:43.759Z,3.66
2022-12-04T06:06:21.482Z,3.68
2022-12-04T06:08:51.919Z,3.73
2022-12-04T06:11:26.547Z,3.73
2022-12-04T06:13:56.983Z,3.74
2022-12-04T06:16:29.512Z,3.75
2022-12-04T06:19:01.264Z,3.77
2022-12-04T06:21:33.688Z,3.77
2022-12-04T06:24:03.536Z,3.76
2022-12-04T06:26:34.628Z,3.77
2022-12-04T06:29:04.073Z,3.75
2022-12-04T06:31:33.867Z,3.76
2022-12-04T06:34:03.424Z,3.80
2022-12-04T06:36:33.066Z,3.81
2022-12-04T06:39:02.421Z,3.85
2022-12-04T06:41:33.744Z,3.83
2022-12-04T06:44:03.008Z,3.83
2022-12-04T06:46:34.314Z,3.83
2022-12-04T06:52:00.226Z,3.79
2022-12-04T06:54:29.552Z,3.80
2022-12-04T06:56:59.019Z,3.79
2022-12-04T06:59:30.608Z,3.77
2022-12-04T07:02:00.008Z,3.81
2022-12-04T07:04:29.485Z,3.85
2022-12-04T07:07:00.388Z,3.85
2022-12-04T07:09:29.708Z,3.85
2022-12-04T07:11:59.235Z,3.89
2022-12-04T07:14:28.607Z,3.91
2022-12-04T07:16:58.675Z,3.90
2022-12-04T07:19:28.087Z,3.89
2022-12-04T07:21:58.930Z,3.89
2022-12-04T07:24:28.208Z,3.89
2022-12-04T07:26:57.567Z,3.90
2022-12-04T07:29:27.973Z,3.91
2022-12-04T07:31:57.530Z,3.87
2022-12-04T07:34:26.887Z,3.85
2022-12-04T07:36:56.204Z,3.87
2022-12-04T07:39:26.939Z,3.90
2022-12-04T07:41:56.408Z,3.93
2022-12-04T07:44:26.104Z,3.96
2022-12-04T07:46:55.412Z,3.95
2022-12-04T07:49:24.968Z,3.96
2022-12-04T07:51:54.291Z,4.01
2022-12-04T07:54:23.648Z,4.03
2022-12-04T07:56:54.394Z,4.03
2022-12-04T07:59:23.925Z,4.03
2022-12-04T08:01:53.263Z,4.03
2022-12-04T08:04:22.779Z,4.05
2022-12-04T08:06:52.245Z,4.08
2022-12-04T08:09:21.612Z,4.08
2022-12-04T08:11:52.404Z,4.11
2022-12-04T08:14:21.807Z,4.12
2022-12-04T08:16:53.045Z,4.17
2022-12-04T08:19:22.696Z,4.18
2022-12-04T08:21:52.024Z,4.18
2022-12-04T08:24:21.407Z,4.16
2022-12-04T08:26:50.771Z,4.17
2022-12-04T08:29:21.461Z,4.16
2022-12-04T08:31:50.891Z,4.13
2022-12-04T08:34:20.218Z,4.15
2022-12-04T08:36:49.565Z,4.16
2022-12-04T08:39:19.135Z,4.19
2022-12-04T08:41:52.465Z,4.21
2022-12-04T08:44:27.839Z,4.24
2022-12-04T08:46:57.150Z,4.21
2022-12-04T08:49:26.657Z,4.18
2022-12-04T08:51:55.951Z,4.19
2022-12-04T08:54:25.341Z,4.19
2022-12-04T08:56:54.570Z,4.23
2022-12-04T08:59:24.248Z,4.26
2022-12-04T09:01:55.238Z,4.23
2022-12-04T09:04:24.616Z,4.24
2022-12-04T09:06:54.215Z,4.23
2022-12-04T09:09:23.509Z,4.22
2022-12-04T09:11:52.986Z,4.23
2022-12-04T09:14:26.028Z,4.24
2022-12-04T09:16:56.848Z,4.24
2022-12-04T09:19:26.142Z,4.28
2022-12-04T09:21:55.388Z,4.32
2022-12-04T09:24:24.908Z,4.32
2022-12-04T09:26:54.384Z,4.38
2022-12-04T09:29:23.774Z,4.41
2022-12-04T09:31:53.248Z,4.44
2022-12-04T09:34:24.029Z,4.45
2022-12-04T09:36:53.472Z,4.43
2022-12-04T09:39:23.017Z,4.39
2022-12-04T09:42:39.846Z,4.36
2022-12-04T09:45:16.346Z,4.34
2022-12-04T09:47:49.204Z,4.33
2022-12-04T09:52:04.446Z,4.19
2022-12-04T09:54:40.944Z,4.21
2022-12-04T09:57:18.805Z,4.21
2022-12-04T09:59:48.895Z,4.15
2022-12-04T10:02:37.325Z,4.18
2022-12-04T10:05:08.708Z,4.16
2022-12-04T10:07:56.044Z,4.10
2022-12-04T10:10:37.438Z,4.08
2022-12-04T10:13:25.451Z,4.05
2022-12-04T10:16:06.033Z,4.05
2022-12-04T10:18:48.892Z,4.12
2022-12-04T10:21:43.128Z,4.14
2022-12-04T10:24:35.024Z,4.08
2022-12-04T10:27:14.625Z,4.14
2022-12-04T10:29:50.954Z,4.20
2022-12-04T10:32:25.355Z,4.22
2022-12-04T10:35:20.415Z,4.18
2022-12-04T10:37:55.461Z,4.22
2022-12-04T10:40:35.112Z,4.22
2022-12-04T10:43:16.325Z,4.25
2022-12-04T10:45:46.986Z,4.25
2022-12-04T10:48:24.994Z,4.31
2022-12-04T10:50:55.385Z,4.32
2022-12-04T10:53:33.464Z,4.34
2022-12-04T10:56:16.172Z,4.26
2022-12-04T10:58:56.693Z,4.24
2022-12-04T11:01:27.287Z,4.31
2022-12-04T11:04:06.004Z,4.36
2022-12-04T11:06:36.206Z,4.44
2022-12-04T11:09:07.689Z,4.50
2022-12-04T11:11:39.443Z,4.55
2022-12-04T11:14:16.945Z,4.56
2022-12-04T11:16:50.164Z,4.59
2022-12-04T11:19:27.655Z,4.59
2022-12-04T11:22:01.005Z,4.52
2022-12-04T11:24:35.808Z,4.47
2022-12-04T11:27:10.425Z,4.32
2022-12-04T11:29:46.192Z,4.25
2022-12-04T11:32:24.914Z,4.22
2022-12-04T11:34:59.589Z,4.23
2022-12-04T11:37:36.472Z,4.28
2022-12-04T11:40:20.187Z,4.33
2022-12-04T11:43:06.986Z,4.41
2022-12-04T11:45:37.405Z,4.43
2022-12-04T11:48:17.146Z,4.43
2022-12-04T11:50:56.704Z,4.47
2022-12-04T11:53:41.409Z,4.46
2022-12-04T11:56:26.610Z,4.51
2022-12-04T11:59:47.133Z,4.50
2022-12-04T12:02:44.758Z,4.49
2022-12-04T12:05:50.445Z,4.43
2022-12-04T12:08:33.573Z,4.50
2022-12-04T12:11:17.981Z,4.45
2022-12-04T12:14:02.567Z,4.50
2022-12-04T12:16:50.076Z,4.54
2022-12-04T12:19:54.223Z,4.59
2022-12-04T12:22:41.249Z,4.59
2022-12-04T12:25:21.563Z,4.58
2022-12-04T12:28:12.961Z,4.51
2022-12-04T12:31:06.383Z,4.48
2022-12-04T12:33:44.264Z,4.52
2022-12-04T12:36:17.472Z,4.48
2022-12-04T12:38:55.331Z,4.43
2022-12-04T12:41:30.028Z,4.38
2022-12-04T12:44:07.275Z,4.30
2022-12-04T12:46:41.630Z,4.19
2022-12-04T12:52:09.234Z,4.11
2022-12-04T12:54:48.524Z,4.15
2022-12-04T12:57:24.203Z,4.16
2022-12-04T13:00:01.102Z,4.13
2022-12-04T13:02:38.272Z,4.09
2022-12-04T13:05:13.979Z,4.11
2022-12-04T13:07:55.003Z,4.08
2022-12-04T13:10:31.563Z,4.00
2022-12-04T13:13:08.405Z,4.02
2022-12-04T13:15:46.424Z,4.06
2022-12-04T13:18:27.718Z,4.10
2022-12-04T13:21:06.627Z,4.12
2022-12-04T13:23:58.105Z,4.11
2022-12-04T13:26:49.536Z,4.09
2022-12-04T13:29:49.125Z,4.10
2022-12-04T13:32:58.452Z,4.09
2022-12-04T13:35:49.651Z,4.09
2022-12-04T13:38:33.864Z,4.08
2022-12-04T13:41:10.285Z,4.06
2022-12-04T13:43:51.089Z,4.04
2022-12-04T13:46:35.372Z,3.98
2022-12-04T13:49:28.052Z,4.00
2022-12-04T13:52:02.462Z,3.99
2022-12-04T13:54:36.760Z,4.01
2022-12-04T13:57:27.612Z,3.96
2022-12-04T14:00:09.699Z,3.94
2022-12-04T14:02:55.420Z,3.86
2022-12-04T14:05:33.930Z,3.83
2022-12-04T14:08:09.523Z,3.86
2022-12-04T14:10:42.907Z,3.88
2022-12-04T14:13:24.233Z,3.90
2022-12-04T14:16:10.361Z,3.87
2022-12-04T14:18:42.841Z,3.86
2022-12-04T14:21:14.904Z,3.88
2022-12-04T14:23:46.044Z,3.83
2022-12-04T14:26:48.810Z,3.82
2022-12-04T14:29:49.410Z,3.76
2022-12-04T14:32:23.158Z,3.77
2022-12-04T14:34:53.700Z,3.78
2022-12-04T14:37:29.849Z,3.77
2022-12-04T14:40:01.477Z,3.78
2022-12-04T14:42:39.006Z,3.78
2022-12-04T14:45:25.558Z,3.78
2022-12-04T14:48:14.744Z,3.78
2022-12-04T14:50:55.371Z,3.75
2022-12-04T14:53:37.332Z,3.71
2022-12-04T14:56:32.751Z,3.66
2022-12-04T14:59:10.506Z,3.67
2022-12-04T15:01:41.386Z,3.70
2022-12-04T15:04:23.274Z,3.71
2022-12-04T15:06:58.488Z,3.69
2022-12-04T15:09:47.545Z,3.70
2022-12-04T15:12:34.970Z,3.70
2022-12-04T15:15:15.285Z,3.69
2022-12-04T15:17:46.074Z,3.65
2022-12-04T15:20:21.824Z,3.61
2022-12-04T15:22:51.296Z,3.52
2022-12-04T15:25:25.765Z,3.45
2022-12-04T15:28:10.276Z,3.44
2022-12-04T15:30:42.799Z,3.40
2022-12-04T15:33:21.809Z,3.42
2022-12-04T15:35:56.706Z,3.43
2022-12-04T15:38:26.372Z,3.41
2022-12-04T15:40:58.324Z,3.39
2022-12-04T15:43:33.992Z,3.39
2022-12-04T15:46:13.093Z,3.37
2022-12-04T15:52:15.144Z,3.30
2022-12-04T15:54:46.065Z,3.36
2022-12-04T15:57:27.304Z,3.33
2022-12-04T16:00:01.339Z,3.29
2022-12-04T16:02:34.707Z,3.29
2022-12-04T16:05:14.726Z,3.30
2022-12-04T16:07:54.760Z,3.28
2022-12-04T16:10:26.828Z,3.30
2022-12-04T16:12:57.751Z,3.27
2022-12-04T16:15:33.884Z,3.26
2022-12-04T16:18:03.746Z,3.27
2022-12-04T16:20:33.263Z,3.31
2022-12-04T16:23:04.928Z,3.33
2022-12-04T16:25:34.471Z,3.32
2022-12-04T16:28:04.608Z,3.29
2022-12-04T16:30:36.461Z,3.27
2022-12-04T16:33:05.888Z,3.26
2022-12-04T16:35:35.121Z,3.29
2022-12-04T16:38:05.965Z,3.31
2022-12-04T16:40:35.288Z,3.32
2022-12-04T16:43:04.751Z,3.34
2022-12-04T16:45:36.187Z,3.38
2022-12-04T16:48:06.287Z,3.38
2022-12-04T16:50:35.885Z,3.38
2022-12-04T16:53:06.724Z,3.39
2022-12-04T16:55:39.144Z,3.39
2022-12-04T16:58:09.511Z,3.34
2022-12-04T17:00:39.424Z,3.31
2022-12-04T17:03:10.573Z,3.33
2022-12-04T17:05:39.927Z,3.33
2022-12-04T17:08:10.777Z,3.36
2022-12-04T17:10:40.165Z,3.40
2022-12-04T17:13:09.457Z,3.39
2022-12-04T17:15:38.914Z,3.32
2022-12-04T17:18:12.150Z,3.28
2022-12-04T17:20:44.064Z,3.25
2022-12-04T17:23:15.172Z,3.19
2022-12-04T17:25:44.686Z,3.19
2022-12-04T17:28:14.505Z,3.20
2022-12-04T17:30:47.445Z,3.21
2022-12-04T17:33:16.985Z,3.19
2022-12-04T17:35:46.325Z,3.21
2022-12-04T17:38:16.984Z,3.27
2022-12-04T17:40:46.209Z,3.34
2022-12-04T17:43:21.730Z,3.40
2022-12-04T17:45:51.525Z,3.40
2022-12-04T17:48:20.824Z,3.31
2022-12-04T17:50:51.102Z,3.25
2022-12-04T17:53:21.917Z,3.27
2022-12-04T17:55:51.222Z,3.30
2022-12-04T17:58:20.575Z,3.31
2022-12-04T18:00:49.901Z,3.30
2022-12-04T18:03:19.343Z,3.33
2022-12-04T18:05:49.046Z,3.36
2022-12-04T18:08:18.491Z,3.39
2022-12-04T18:10:49.349Z,3.39
2022-12-04T18:13:18.763Z,3.38
2022-12-04T18:15:48.245Z,3.37
2022-12-04T18:18:17.584Z,3.36
2022-12-04T18:20:47.010Z,3.32
2022-12-04T18:23:16.467Z,3.31
2022-12-04T18:25:57.966Z,3.27
2022-12-04T18:28:27.586Z,3.25
2022-12-04T18:30:56.944Z,3.20
2022-12-04T18:33:26.288Z,3.22
2022-12-04T18:35:56.963Z,3.20
2022-12-04T18:38:27.533Z,3.18
2022-12-04T18:41:02.573Z,3.17
2022-12-04T18:43:35.865Z,3.16
2022-12-04T18:46:08.157Z,3.15
2022-12-04T18:52:01.556Z,3.19
2022-12-04T18:54:30.970Z,3.11
2022-12-04T18:57:00.285Z,3.06
2022-12-04T18:59:30.086Z,3.01
2022-12-04T19:01:59.520Z,2.99
2022-12-04T19:04:28.830Z,2.94
2022-12-04T19:06:59.652Z,2.89
2022-12-04T19:12:20.123Z,2.84
2022-12-04T19:14:49.573Z,2.84
2022-12-04T19:17:20.254Z,2.82
2022-12-04T19:19:50.029Z,2.86
2022-12-04T19:22:20.843Z,2.90
2022-12-04T19:24:50.204Z,2.92
2022-12-04T19:27:19.564Z,2.91
2022-12-04T19:29:49.905Z,2.94
2022-12-04T19:32:19.387Z,2.98
2022-12-04T19:34:50.562Z,3.00
2022-12-04T19:37:21.433Z,3.00
2022-12-04T19:39:50.865Z,2.99
2022-12-04T19:42:20.212Z,2.97
2022-12-04T19:44:50.002Z,2.96
2022-12-04T19:47:20.270Z,2.96
2022-12-04T19:49:49.804Z,2.90
2022-12-04T19:52:20.839Z,2.86
2022-12-04T19:54:50.131Z,2.87
2022-12-04T19:57:19.370Z,2.88
2022-12-04T19:59:49.055Z,2.82
2022-12-04T20:02:19.838Z,2.79
2022-12-04T20:04:49.306Z,2.73
2022-12-04T20:07:20.174Z,2.62
2022-12-04T20:09:55.096Z,2.60
2022-12-04T20:12:24.711Z,2.65
2022-12-04T20:14:54.196Z,2.71
2022-12-04T20:17:23.623Z,2.78
2022-12-04T20:19:52.927Z,2.80
2022-12-04T20:22:23.665Z,2.83
2022-12-04T20:24:52.924Z,2.82
2022-12-04T20:27:22.125Z,2.85
2022-12-04T20:29:51.563Z,2.87
2022-12-04T20:32:20.960Z,2.84
2022-12-04T20:34:50.263Z,2.87
2022-12-04T20:37:19.488Z,2.85
2022-12-04T20:39:50.303Z,2.74
2022-12-04T20:42:19.685Z,2.79
2022-12-04T20:44:49.425Z,2.86
2022-12-04T20:47:18.799Z,2.88
2022-12-04T20:49:48.065Z,2.84
2022-12-04T20:52:17.533Z,2.84
2022-12-04T20:54:48.345Z,2.83
2022-12-04T20:57:17.631Z,2.83
2022-12-04T20:59:46.948Z,2.83
2022-12-04T21:02:16.679Z,2.86
2022-12-04T21:04:46.571Z,2.85
2022-12-04T21:07:15.891Z,2.84
2022-12-04T21:09:45.430Z,2.85
2022-12-04T21:12:34.715Z,2.85
2022-12-04T21:15:25.167Z,2.82
2022-12-04T21:17:54.585Z,2.84
2022-12-04T21:20:24.391Z,2.86
2022-12-04T21:22:53.773Z,2.82
2022-12-04T21:25:23.489Z,2.80
2022-12-04T21:27:54.711Z,2.85
2022-12-04T21:30:24.104Z,2.83
2022-12-04T21:32:53.573Z,2.76
2022-12-04T21:35:23.003Z,2.74
2022-12-04T21:37:52.271Z,2.72
2022-12-04T21:40:21.565Z,2.78
2022-12-04T21:42:52.263Z,2.78
2022-12-04T21:45:21.544Z,2.79
2022-12-04T21:47:50.884Z,2.78
2022-12-04T21:51:59.921Z,2.81
2022-12-04T21:54:30.065Z,2.82
2022-12-04T21:57:00.507Z,2.81
2022-12-04T21:59:30.012Z,2.82
2022-12-04T22:01:59.479Z,2.83
2022-12-04T22:04:29.085Z,2.87
2022-12-04T22:06:59.804Z,2.89
2022-12-04T22:09:29.270Z,2.90
2022-12-04T22:11:58.959Z,2.88
2022-12-04T22:14:28.445Z,2.89
2022-12-04T22:16:58.042Z,2.90
2022-12-04T22:19:27.424Z,2.90
2022-12-04T22:21:56.824Z,2.88
2022-12-04T22:24:27.828Z,2.81
2022-12-04T22:26:57.166Z,2.80
2022-12-04T22:29:49.188Z,2.80
2022-12-04T22:32:15.711Z,2.81
2022-12-04T22:34:45.005Z,2.82
2022-12-04T22:37:14.412Z,2.85
2022-12-04T22:39:45.236Z,2.86
2022-12-04T22:42:14.764Z,2.85
2022-12-04T22:44:44.146Z,2.85
2022-12-04T22:47:13.592Z,2.85
2022-12-04T22:49:42.824Z,2.86
2022-12-04T22:52:12.645Z,2.86
2022-12-04T22:54:43.362Z,2.84
2022-12-04T22:57:12.784Z,2.83
2022-12-04T22:59:42.035Z,2.82
2022-12-04T23:02:11.494Z,2.80
2022-12-04T23:04:40.981Z,2.81
2022-12-04T23:07:10.872Z,2.81
2022-12-04T23:09:41.765Z,2.81
2022-12-04T23:12:12.802Z,2.83
2022-12-04T23:14:42.209Z,2.84
2022-12-04T23:17:11.682Z,2.84
2022-12-04T23:19:41.223Z,2.81
2022-12-04T23:22:10.732Z,2.77
2022-12-04T23:24:41.611Z,2.72
2022-12-04T23:27:12.379Z,2.74
2022-12-04T23:29:53.264Z,2.75
2022-12-04T23:32:23.386Z,2.76
2022-12-04T23:34:53.256Z,2.80
2022-12-04T23:37:22.501Z,2.81
2022-12-04T23:39:51.864Z,2.82
2022-12-04T23:42:22.542Z,2.80
2022-12-04T23:44:51.940Z,2.80
2022-12-04T23:47:21.396Z,2.82
2022-12-04T23:49:50.762Z,2.83
2022-12-04T23:52:20.113Z,2.82
2022-12-04T23:54:49.505Z,2.80
2022-12-04T23:57:18.747Z,2.80
2022-12-04T23:59:49.510Z,2.76
